Terminal Aerodrome Forecast
Issued by NWS Spokane, WA

Home | Current Version | Previous Version | Text Only | Print | Product List | Glossary On
Versions: 1 2 3 4 5 6 7 8 9 10 11 12 13 14 15 16 17 18 19
000
FTUS46 KOTX 250530
TAFLWS
TAF
KLWS 250530Z 2506/2606 20003KT P6SM SCT080
     FM251200 VRB02KT P6SM BCFG FEW002
     FM251800 28007KT P6SM FEW040 SCT200
     FM260200 30006KT P6SM SCT060 BKN130=

USA.gov is the U.S. government's official web portal to all federal, state and local government web resources and services.